Time;durP1;ratioP1;P1;durP2;ratioP2;P2;SDS_P1;SDS_P2;PMS_P1;PMS_P2;Temp;Humidity;BMP_temperature;BMP_pressure;BME280_temperature;BME280_humidity;BME280_pressure;Samples;Min_cycle;Max_cycle;Signal;HPM_P1;HPM_P2
2022/12/18 00:00:57;;;;;;;6.60;4.93;;;;;;;7.65;75.61;95524.00;5015133;28;20029;-72
2022/12/18 00:03:23;;;;;;;7.07;5.10;;;;;;;7.47;75.15;95507.84;5042821;28;20487;-72
2022/12/18 00:05:49;;;;;;;7.25;5.10;;;;;;;7.55;75.20;95543.56;5037401;28;20059;-72
2022/12/18 00:08:14;;;;;;;6.63;5.13;;;;;;;7.61;75.74;95541.47;5010522;28;20535;-72
2022/12/18 00:10:40;;;;;;;7.80;5.50;;;;;;;7.57;75.36;95541.72;5038770;28;20108;-72
2022/12/18 00:13:05;;;;;;;6.00;4.70;;;;;;;7.58;74.23;95546.81;5042018;28;20029;-72
2022/12/18 00:15:34;;;;;;;5.65;4.22;;;;;;;7.53;73.96;95550.59;5043727;28;20037;-72
2022/12/18 00:17:59;;;;;;;6.18;4.20;;;;;;;7.54;74.14;95553.09;5025444;28;20037;-72
2022/12/18 00:20:25;;;;;;;5.70;4.43;;;;;;;7.55;75.12;95562.53;5042173;28;20037;-72
2022/12/18 00:22:52;;;;;;;7.15;4.50;;;;;;;7.24;74.51;95566.03;5049456;28;20021;-72
2022/12/18 00:25:17;;;;;;;6.10;4.15;;;;;;;7.32;74.56;95557.84;5046813;28;20033;-72
2022/12/18 00:27:43;;;;;;;6.35;4.50;;;;;;;7.18;74.46;95571.56;5018664;28;20048;-72
2022/12/18 00:30:09;;;;;;;5.82;4.13;;;;;;;7.18;74.30;95573.31;5027625;28;20415;-73
2022/12/18 00:32:34;;;;;;;5.40;3.80;;;;;;;7.15;74.09;95574.34;5046697;28;20037;-72
2022/12/18 00:35:00;;;;;;;4.95;3.83;;;;;;;7.07;73.72;95576.53;5050816;28;20541;-72
2022/12/18 00:37:25;;;;;;;4.80;3.75;;;;;;;7.02;74.58;95560.44;5034593;28;20055;-72
2022/12/18 00:39:51;;;;;;;5.75;4.07;;;;;;;6.85;74.26;95572.59;5053625;28;20147;-72
2022/12/18 00:45:00;;;;;;;6.22;4.30;;;;;;;6.86;74.41;95588.91;5041105;28;20098;-72
2022/12/18 00:47:25;;;;;;;5.45;4.15;;;;;;;6.91;74.43;95571.41;5042163;28;20029;-72
2022/12/18 00:49:51;;;;;;;5.68;4.20;;;;;;;6.86;74.89;95560.50;5009329;28;20044;-72
2022/12/18 00:52:16;;;;;;;5.28;3.90;;;;;;;6.90;74.82;95587.81;5022730;28;20017;-72
2022/12/18 00:54:41;;;;;;;5.60;4.28;;;;;;;7.01;75.20;95587.22;5025867;28;20033;-72
2022/12/18 00:57:07;;;;;;;7.53;4.35;;;;;;;7.01;74.94;95598.38;5040241;28;20048;-72
2022/12/18 00:59:32;;;;;;;6.93;4.57;;;;;;;6.96;74.87;95600.38;5040309;28;20468;-72
2022/12/18 01:01:58;;;;;;;7.57;5.20;;;;;;;6.98;74.21;95606.28;5041742;28;20434;-72
2022/12/18 01:04:23;;;;;;;6.20;4.80;;;;;;;7.01;72.82;95605.28;5039920;28;20029;-72
2022/12/18 01:06:49;;;;;;;6.65;4.65;;;;;;;6.89;73.49;95581.00;5039702;28;20045;-72
2022/12/18 01:09:15;;;;;;;6.50;4.90;;;;;;;6.94;73.77;95591.91;5027131;28;20029;-72
2022/12/18 01:11:40;;;;;;;5.72;4.22;;;;;;;6.94;73.29;95602.22;5039800;28;20033;-72
2022/12/18 01:14:06;;;;;;;5.90;4.60;;;;;;;6.88;72.93;95610.28;5040784;28;20032;-72
2022/12/18 01:16:31;;;;;;;7.15;5.13;;;;;;;6.86;73.08;95612.97;5038680;28;20039;-72
2022/12/18 01:18:56;;;;;;;6.95;4.90;;;;;;;6.93;72.24;95609.13;5042504;28;20017;-72
2022/12/18 01:21:22;;;;;;;5.18;4.20;;;;;;;6.84;73.16;95613.97;5022203;28;20029;-72
2022/12/18 01:23:51;;;;;;;7.45;4.70;;;;;;;6.83;73.04;95605.41;5040741;28;20438;-72
2022/12/18 01:26:17;;;;;;;5.85;4.55;;;;;;;6.88;73.29;95620.63;5022262;28;20534;-72
2022/12/18 01:28:43;;;;;;;7.07;4.97;;;;;;;6.84;73.56;95613.97;5042053;28;20033;-72
2022/12/18 01:31:25;;;;;;;6.82;5.00;;;;;;;6.84;74.26;95624.31;5024349;28;20037;-72
2022/12/18 01:33:51;;;;;;;8.30;5.03;;;;;;;6.82;73.84;95624.38;5042318;28;20025;-72
2022/12/18 01:36:21;;;;;;;6.60;4.80;;;;;;;6.52;73.69;95615.72;5024654;28;20075;-72
2022/12/18 01:38:48;;;;;;;8.55;6.88;;;;;;;6.42;73.39;95618.00;5024190;28;20033;-72
2022/12/18 01:41:14;;;;;;;6.60;5.18;;;;;;;6.47;73.24;95623.75;5038936;28;20025;-72
2022/12/18 01:43:45;;;;;;;6.82;4.97;;;;;;;6.48;72.90;95630.56;5041052;28;20462;-72
2022/12/18 01:46:11;;;;;;;6.72;5.30;;;;;;;6.48;72.76;95633.13;5042013;28;20060;-72
2022/12/18 01:48:37;;;;;;;8.00;5.70;;;;;;;6.59;72.34;95632.56;5005618;28;20579;-72
2022/12/18 01:51:02;;;;;;;9.43;6.40;;;;;;;6.45;72.40;95620.41;5022135;28;20499;-72
2022/12/18 01:53:28;;;;;;;9.70;6.22;;;;;;;6.47;72.71;95639.22;5022702;28;20128;-72
2022/12/18 01:55:57;;;;;;;8.35;5.80;;;;;;;6.51;72.39;95627.81;5042039;28;20025;-72
2022/12/18 01:58:40;;;;;;;7.20;5.35;;;;;;;6.39;71.81;95636.22;5039772;28;20045;-72
2022/12/18 02:01:06;;;;;;;9.10;6.28;;;;;;;6.12;72.42;95644.50;5040265;28;20032;-72
2022/12/18 02:03:31;;;;;;;8.27;5.55;;;;;;;6.02;73.37;95638.16;5051197;28;20087;-72
2022/12/18 02:06:00;;;;;;;8.43;6.30;;;;;;;6.01;73.14;95646.78;5050999;28;20029;-72
2022/12/18 02:09:04;;;;;;;7.43;5.63;;;;;;;6.14;73.03;95653.00;5050730;28;20498;-72
2022/12/18 02:11:44;;;;;;;7.90;5.47;;;;;;;6.23;72.78;95646.50;5050646;28;20396;-72
2022/12/18 02:14:17;;;;;;;9.30;6.18;;;;;;;6.00;72.50;95653.69;5050955;28;20025;-72
2022/12/18 02:16:58;;;;;;;9.18;6.22;;;;;;;5.98;73.05;95646.94;5034379;28;20447;-72
2022/12/18 02:19:51;;;;;;;8.88;6.03;;;;;;;6.09;72.28;95659.31;5035179;28;20029;-72
2022/12/18 02:22:53;;;;;;;8.20;5.72;;;;;;;6.12;71.97;95659.97;5050425;28;20578;-72
2022/12/18 02:25:56;;;;;;;10.10;6.53;;;;;;;5.98;72.78;95657.28;5050499;28;20418;-72
2022/12/18 02:28:23;;;;;;;8.18;6.03;;;;;;;6.06;73.05;95654.31;5051434;28;20029;-72
2022/12/18 02:30:49;;;;;;;8.65;5.80;;;;;;;6.04;72.07;95647.50;5034114;28;20036;-72
2022/12/18 02:33:14;;;;;;;9.05;6.72;;;;;;;6.08;71.86;95663.63;5033862;28;20035;-72
2022/12/18 02:35:40;;;;;;;9.57;6.72;;;;;;;5.97;72.25;95656.44;5016991;28;20527;-72
2022/12/18 02:38:05;;;;;;;11.18;7.78;;;;;;;6.07;71.99;95661.94;5033663;28;20028;-71
2022/12/18 02:40:31;;;;;;;13.65;8.77;;;;;;;6.12;71.74;95657.38;5050306;28;20048;-72
2022/12/18 02:43:03;;;;;;;9.85;7.47;;;;;;;6.02;72.30;95653.63;5033469;28;20029;-72
2022/12/18 02:45:28;;;;;;;9.45;6.80;;;;;;;6.10;72.40;95666.13;5050023;28;20040;-72
2022/12/18 02:47:53;;;;;;;9.70;7.35;;;;;;;6.06;71.72;95670.59;5051371;28;20074;-72
2022/12/18 02:50:27;;;;;;;11.43;7.50;;;;;;;5.80;72.62;95677.91;5050271;28;20037;-72
2022/12/18 02:53:27;;;;;;;8.95;6.68;;;;;;;5.83;72.61;95680.31;5049935;28;20100;-72
2022/12/18 02:56:06;;;;;;;10.40;7.03;;;;;;;5.82;73.10;95670.94;5051575;28;20079;-72
2022/12/18 02:58:47;;;;;;;8.82;6.38;;;;;;;5.89;73.11;95676.59;5033952;28;20518;-72
2022/12/18 03:01:33;;;;;;;8.93;6.45;;;;;;;5.85;72.80;95690.56;5014252;28;20038;-72
2022/12/18 03:04:04;;;;;;;8.52;6.50;;;;;;;5.75;72.76;95684.19;5014130;28;20130;-71
2022/12/18 03:06:32;;;;;;;8.50;6.38;;;;;;;5.71;72.58;95686.09;5013762;28;20037;-72
2022/12/18 03:09:11;;;;;;;8.45;6.43;;;;;;;5.72;72.95;95687.75;5013810;28;20104;-72
2022/12/18 03:14:22;;;;;;;9.57;6.47;;;;;;;5.66;72.14;95682.91;5018013;28;20044;-72
2022/12/18 03:16:49;;;;;;;10.68;6.72;;;;;;;5.66;72.57;95700.97;5017665;28;20033;-72
2022/12/18 03:19:16;;;;;;;8.02;5.95;;;;;;;5.66;72.67;95693.22;5033972;28;20034;-72
2022/12/18 03:21:50;;;;;;;9.80;6.70;;;;;;;5.69;73.32;95698.22;5017575;28;20029;-72
2022/12/18 03:24:16;;;;;;;8.85;6.57;;;;;;;5.50;73.37;95700.03;5033850;28;20109;-72
2022/12/18 03:26:44;;;;;;;9.65;6.55;;;;;;;5.64;73.07;95713.09;5017505;28;20119;-72
2022/12/18 03:29:12;;;;;;;10.55;8.02;;;;;;;5.48;72.44;95705.25;5017477;28;20059;-72
2022/12/18 03:31:40;;;;;;;11.63;6.82;;;;;;;5.58;72.48;95710.81;5017291;28;20065;-72
2022/12/18 03:34:09;;;;;;;8.90;6.82;;;;;;;5.59;72.68;95712.47;5000854;28;20132;-72
2022/12/18 03:36:34;;;;;;;12.63;8.23;;;;;;;5.66;71.47;95707.88;5044257;28;20033;-72
2022/12/18 03:39:00;;;;;;;12.35;8.82;;;;;;;5.63;71.61;95716.59;5036772;28;20032;-72
2022/12/18 03:41:30;;;;;;;14.13;8.60;;;;;;;5.47;71.72;95728.53;5036787;28;20045;-72
2022/12/18 03:44:05;;;;;;;12.45;8.13;;;;;;;5.26;72.56;95726.06;5053208;28;20025;-72
2022/12/18 03:46:38;;;;;;;10.77;7.18;;;;;;;5.24;73.00;95742.53;5052618;28;20033;-72
2022/12/18 03:49:24;;;;;;;8.60;6.45;;;;;;;5.24;73.04;95747.69;5037724;28;20036;-72
2022/12/18 03:51:59;;;;;;;13.68;9.23;;;;;;;5.20;73.04;95736.66;5019835;28;20041;-72
2022/12/18 03:54:25;;;;;;;14.70;9.20;;;;;;;5.33;72.17;95737.75;5037304;28;20039;-72
2022/12/18 03:56:56;;;;;;;15.50;10.00;;;;;;;5.31;72.51;95744.72;5036604;28;20056;-72
2022/12/18 03:59:21;;;;;;;49.88;24.05;;;;;;;5.29;72.88;95741.41;5036799;28;20036;-72
2022/12/18 04:01:47;;;;;;;34.80;19.30;;;;;;;5.17;73.04;95744.53;5023045;28;20037;-72
2022/12/18 04:04:13;;;;;;;11.77;8.02;;;;;;;5.19;72.88;95735.00;5016883;28;20032;-72
2022/12/18 04:06:39;;;;;;;8.80;6.70;;;;;;;5.16;72.81;95760.91;5033215;28;20091;-72
2022/12/18 04:09:05;;;;;;;9.40;6.05;;;;;;;5.17;72.89;95766.88;5032950;28;20026;-72
2022/12/18 04:11:30;;;;;;;8.25;5.75;;;;;;;5.12;72.39;95769.66;5016642;28;20450;-72
2022/12/18 04:13:59;;;;;;;7.43;5.10;;;;;;;4.77;72.34;95743.81;5000000;28;20021;-72
2022/12/18 04:16:29;;;;;;;6.80;5.32;;;;;;;4.96;72.08;95748.97;5001062;28;20049;-72
2022/12/18 04:18:54;;;;;;;7.10;5.10;;;;;;;4.95;72.14;95755.00;5033714;28;20021;-72
2022/12/18 04:21:20;;;;;;;7.28;5.35;;;;;;;4.88;72.36;95754.44;5034343;28;20037;-72
2022/12/18 04:23:45;;;;;;;7.05;5.20;;;;;;;4.98;72.48;95766.91;4999989;28;20037;-71
2022/12/18 04:26:11;;;;;;;6.22;4.55;;;;;;;4.91;72.34;95779.22;5031831;28;20589;-72
2022/12/18 04:28:36;;;;;;;7.25;5.32;;;;;;;4.83;72.19;95768.44;5033462;28;20033;-72
2022/12/18 04:31:02;;;;;;;8.23;5.32;;;;;;;5.10;71.41;95781.81;5033784;28;20030;-72
2022/12/18 04:33:27;;;;;;;6.97;5.15;;;;;;;5.00;71.35;95772.81;5032525;28;20086;-71
2022/12/18 04:35:53;;;;;;;7.88;5.57;;;;;;;5.15;72.11;95779.81;5032705;28;20587;-72
2022/12/18 04:38:18;;;;;;;7.05;5.22;;;;;;;5.08;71.40;95786.19;5033490;28;20037;-72
2022/12/18 04:40:44;;;;;;;9.13;7.05;;;;;;;4.99;71.68;95789.19;5032646;28;20045;-72
2022/12/18 04:43:09;;;;;;;8.48;5.95;;;;;;;4.98;71.72;95795.22;5033383;28;20037;-72
2022/12/18 04:45:34;;;;;;;9.18;6.97;;;;;;;5.01;71.82;95801.06;5032334;28;20033;-72
2022/12/18 04:48:00;;;;;;;9.60;6.75;;;;;;;4.91;71.53;95789.53;5033208;28;20037;-72
2022/12/18 04:50:26;;;;;;;8.20;6.32;;;;;;;4.99;71.08;95805.47;5032262;28;20056;-71
2022/12/18 04:52:51;;;;;;;9.70;6.72;;;;;;;4.98;71.21;95818.41;5032153;28;20095;-72
2022/12/18 04:55:17;;;;;;;10.05;6.38;;;;;;;4.95;71.69;95818.53;5033545;28;20032;-72
2022/12/18 04:57:42;;;;;;;9.93;6.47;;;;;;;4.63;70.52;95823.38;5013929;28;20061;-71
2022/12/18 05:00:08;;;;;;;9.27;6.32;;;;;;;4.73;70.79;95819.47;5031197;28;20049;-72
2022/12/18 05:02:34;;;;;;;9.35;6.00;;;;;;;4.79;70.96;95829.53;5031795;28;20041;-72
2022/12/18 05:04:59;;;;;;;8.85;6.30;;;;;;;4.89;70.71;95825.63;5031198;28;20088;-72
2022/12/18 05:07:25;;;;;;;10.70;5.93;;;;;;;4.93;70.29;95826.31;5031756;28;20033;-71
2022/12/18 05:09:50;;;;;;;8.48;6.35;;;;;;;4.72;69.05;95833.28;5031888;28;20045;-72
2022/12/18 05:12:16;;;;;;;11.30;6.70;;;;;;;4.84;69.55;95834.47;5031625;28;20504;-72
2022/12/18 05:14:41;;;;;;;9.20;6.60;;;;;;;4.64;70.10;95825.03;5032597;28;20439;-72
2022/12/18 05:17:07;;;;;;;11.68;8.00;;;;;;;4.63;70.19;95849.13;5033090;28;20025;-72
2022/12/18 05:19:32;;;;;;;12.35;7.63;;;;;;;4.69;69.84;95852.25;5032785;28;20085;-72
2022/12/18 05:21:58;;;;;;;10.73;6.72;;;;;;;4.50;69.20;95837.66;5032570;28;20028;-72
2022/12/18 05:24:23;;;;;;;9.77;7.07;;;;;;;4.39;70.02;95841.53;5030563;28;20030;-71
2022/12/18 05:26:49;;;;;;;10.82;6.93;;;;;;;4.45;70.04;95867.00;5014906;28;20094;-72
2022/12/18 05:29:14;;;;;;;11.70;6.47;;;;;;;4.40;70.11;95853.50;5014979;28;20022;-72
2022/12/18 05:31:40;;;;;;;10.18;6.78;;;;;;;4.40;69.77;95866.38;5031579;28;20033;-71
2022/12/18 05:34:05;;;;;;;10.10;6.75;;;;;;;4.37;69.90;95847.63;5031314;28;20116;-72
2022/12/18 05:36:31;;;;;;;10.93;7.43;;;;;;;4.53;69.48;95864.09;5015061;28;20041;-71
2022/12/18 05:38:56;;;;;;;10.63;7.38;;;;;;;4.64;69.81;95871.38;4998456;28;20030;-72
2022/12/18 05:41:22;;;;;;;12.98;7.50;;;;;;;4.57;69.96;95849.34;4998687;28;20527;-72
2022/12/18 05:43:47;;;;;;;11.75;7.25;;;;;;;4.55;70.11;95861.47;5030976;28;20419;-72
2022/12/18 05:46:14;;;;;;;9.85;6.25;;;;;;;4.67;69.39;95878.97;5014869;28;20041;-72
2022/12/18 05:48:41;;;;;;;9.50;6.65;;;;;;;4.72;69.06;95877.03;5031368;28;20033;-72
2022/12/18 05:51:11;;;;;;;11.15;7.45;;;;;;;4.77;68.95;95882.81;5032486;28;20037;-71
2022/12/18 05:53:36;;;;;;;12.00;7.28;;;;;;;4.69;69.32;95879.75;5032137;28;20021;-72
2022/12/18 05:56:03;;;;;;;11.13;7.13;;;;;;;4.72;69.84;95894.22;5032100;28;20040;-72
2022/12/18 05:58:28;;;;;;;11.70;7.47;;;;;;;4.62;69.50;95899.72;5031004;28;20049;-72
2022/12/18 06:00:54;;;;;;;10.63;7.03;;;;;;;4.59;69.76;95901.59;5021073;28;20399;-71
2022/12/18 06:03:19;;;;;;;12.38;8.10;;;;;;;4.68;69.48;95901.22;5050649;28;20036;-72
2022/12/18 06:05:45;;;;;;;14.60;10.27;;;;;;;4.76;69.40;95895.75;5052196;28;20052;-72
2022/12/18 06:08:11;;;;;;;12.65;7.90;;;;;;;4.82;68.46;95901.50;5017138;28;20043;-72
2022/12/18 06:10:37;;;;;;;17.13;10.68;;;;;;;4.72;68.62;95884.75;5036724;28;20515;-72
2022/12/18 06:13:02;;;;;;;13.63;8.35;;;;;;;4.84;67.95;95898.84;5037088;28;20027;-72
2022/12/18 06:15:28;;;;;;;10.75;7.95;;;;;;;4.67;67.68;95881.53;5023104;28;20090;-72
2022/12/18 06:17:53;;;;;;;12.50;7.97;;;;;;;4.63;67.91;95900.59;5040723;28;20037;-72
2022/12/18 06:20:19;;;;;;;11.18;7.68;;;;;;;4.76;68.33;95916.34;5040002;28;20025;-71
2022/12/18 06:22:44;;;;;;;16.77;10.77;;;;;;;4.71;68.37;95911.41;5039004;28;20048;-72
2022/12/18 06:25:09;;;;;;;15.40;9.30;;;;;;;4.43;67.51;95886.81;5021712;28;20034;-71
2022/12/18 06:27:35;;;;;;;13.35;8.07;;;;;;;4.57;68.13;95922.28;5018928;28;20041;-71
2022/12/18 06:30:00;;;;;;;17.45;10.68;;;;;;;4.40;68.68;95930.69;5018866;28;20024;-72
2022/12/18 06:32:26;;;;;;;16.98;10.73;;;;;;;4.28;69.62;95933.75;5037664;28;20027;-72
2022/12/18 06:34:53;;;;;;;17.98;11.55;;;;;;;4.41;69.86;95936.66;5037613;28;20037;-71
2022/12/18 06:37:18;;;;;;;17.52;11.45;;;;;;;4.37;70.32;95941.09;5037353;28;20053;-72
2022/12/18 06:39:43;;;;;;;15.50;10.60;;;;;;;4.57;69.72;95937.72;5038415;28;20053;-69
2022/12/18 06:42:09;;;;;;;17.17;10.57;;;;;;;4.53;69.90;95943.03;5038646;28;20025;-69
2022/12/18 06:44:35;;;;;;;14.88;9.90;;;;;;;4.60;70.69;95947.06;5034539;28;20070;-69
2022/12/18 06:47:00;;;;;;;16.15;9.18;;;;;;;4.64;70.24;95954.56;5008027;28;20055;-68
2022/12/18 06:49:26;;;;;;;19.70;11.35;;;;;;;4.74;69.65;95955.03;5037171;28;20150;-68
2022/12/18 06:51:51;;;;;;;14.73;9.90;;;;;;;4.80;69.04;95956.53;5037960;28;20032;-68
2022/12/18 06:54:17;;;;;;;18.92;12.73;;;;;;;4.81;68.43;95950.47;5031838;28;20102;-68
2022/12/18 06:56:45;;;;;;;20.52;12.43;;;;;;;4.86;67.79;95959.66;5036379;28;20503;-68
2022/12/18 06:59:10;;;;;;;15.13;9.85;;;;;;;4.81;68.42;95956.44;5035974;28;20539;-69
2022/12/18 07:01:36;;;;;;;16.25;10.23;;;;;;;4.71;67.94;95944.88;5033534;28;20091;-69
2022/12/18 07:04:01;;;;;;;16.27;9.90;;;;;;;4.77;67.95;95964.38;5021926;28;20428;-68
2022/12/18 07:06:27;;;;;;;13.80;9.75;;;;;;;4.62;68.89;95960.69;5037041;28;20083;-68
2022/12/18 07:08:53;;;;;;;25.00;14.45;;;;;;;4.71;67.54;95952.59;5035410;28;20037;-68
2022/12/18 07:11:18;;;;;;;17.30;10.88;;;;;;;4.67;67.14;95957.00;5030663;28;20065;-68
2022/12/18 07:13:45;;;;;;;13.30;8.88;;;;;;;4.54;68.04;95955.88;5043030;28;20460;-69
2022/12/18 07:16:20;;;;;;;12.35;8.52;;;;;;;4.59;67.08;95961.63;5031506;28;20048;-68
2022/12/18 07:18:45;;;;;;;13.70;9.70;;;;;;;4.56;67.15;95974.63;5033726;28;20502;-69
2022/12/18 07:21:14;;;;;;;14.88;8.65;;;;;;;4.52;67.41;95983.38;5041501;28;20029;-70
2022/12/18 07:23:40;;;;;;;11.82;7.93;;;;;;;4.49;67.65;95980.94;5022220;28;20056;-68
2022/12/18 07:26:07;;;;;;;13.40;8.52;;;;;;;4.62;67.02;95983.84;5030351;28;20495;-68
2022/12/18 07:28:33;;;;;;;14.10;9.32;;;;;;;4.54;67.10;95968.72;5035230;28;20080;-68
2022/12/18 07:31:08;;;;;;;14.15;9.73;;;;;;;4.62;67.14;95978.69;5034719;28;20033;-69
2022/12/18 07:33:33;;;;;;;13.55;8.50;;;;;;;4.73;66.78;95984.25;5048951;28;20024;-69
2022/12/18 07:36:00;;;;;;;14.07;8.85;;;;;;;4.44;66.02;95982.88;5047363;28;20119;-68
2022/12/18 07:38:25;;;;;;;21.17;14.50;;;;;;;4.39;67.27;95992.50;5045502;28;20036;-68
2022/12/18 07:40:51;;;;;;;20.77;12.48;;;;;;;4.33;67.12;95995.31;5049200;28;20033;-68
2022/12/18 07:43:16;;;;;;;30.73;19.92;;;;;;;4.31;67.52;96005.66;5032524;28;20030;-69
2022/12/18 07:45:42;;;;;;;22.30;16.25;;;;;;;4.41;67.27;96003.56;5027661;28;20057;-68
2022/12/18 07:48:07;;;;;;;16.13;10.88;;;;;;;4.36;66.28;95996.03;5036753;28;20116;-69
2022/12/18 07:50:33;;;;;;;16.73;11.57;;;;;;;4.52;66.29;96010.88;5043363;28;20033;-68
2022/12/18 07:53:03;;;;;;;17.45;10.48;;;;;;;4.57;65.96;96007.22;5026968;28;20033;-69
2022/12/18 07:55:29;;;;;;;16.83;10.52;;;;;;;4.62;66.27;96009.59;5026514;28;20044;-68
2022/12/18 07:57:54;;;;;;;20.70;12.95;;;;;;;4.39;65.97;96006.19;5027884;28;20427;-69
2022/12/18 08:00:20;;;;;;;19.13;11.05;;;;;;;4.18;66.35;96015.59;5027000;28;20038;-68
2022/12/18 08:02:45;;;;;;;15.73;9.50;;;;;;;4.30;66.43;96022.00;5031825;28;20488;-68
2022/12/18 08:05:11;;;;;;;15.05;9.98;;;;;;;4.35;66.03;96012.38;5000028;28;20044;-68
2022/12/18 08:07:36;;;;;;;15.98;9.65;;;;;;;4.30;66.49;96016.84;5016031;28;20060;-68
2022/12/18 08:10:02;;;;;;;18.20;10.90;;;;;;;4.45;65.64;96044.53;5033678;28;20388;-68
2022/12/18 08:12:27;;;;;;;15.13;10.10;;;;;;;4.19;65.70;96030.13;5016117;28;20120;-69
2022/12/18 08:14:52;;;;;;;17.45;10.63;;;;;;;4.28;65.67;96038.38;5032583;28;20037;-69
2022/12/18 08:17:19;;;;;;;14.35;9.15;;;;;;;4.13;65.37;96044.97;5016033;28;20480;-69
2022/12/18 08:19:45;;;;;;;26.55;13.52;;;;;;;4.23;65.87;96046.28;5032482;28;20069;-68
2022/12/18 08:22:10;;;;;;;20.83;12.00;;;;;;;4.13;65.73;96040.66;5032398;28;20030;-69
2022/12/18 08:24:35;;;;;;;26.40;13.45;;;;;;;4.10;65.83;96056.19;5015898;28;20032;-68
2022/12/18 08:27:01;;;;;;;23.88;13.43;;;;;;;4.13;66.48;96047.53;5032195;28;20101;-68
2022/12/18 08:29:26;;;;;;;26.45;14.45;;;;;;;4.24;66.23;96050.53;5032232;28;20450;-69
2022/12/18 08:31:52;;;;;;;23.52;14.63;;;;;;;4.25;66.34;96054.78;5033382;28;20029;-68
2022/12/18 08:34:17;;;;;;;20.70;12.43;;;;;;;4.30;66.23;96050.28;5032212;28;20029;-68
2022/12/18 08:36:43;;;;;;;19.20;11.15;;;;;;;4.38;66.26;96063.72;5033721;28;20045;-68
2022/12/18 08:39:08;;;;;;;19.30;11.77;;;;;;;4.21;65.73;96063.53;5032160;28;20083;-69
2022/12/18 08:41:33;;;;;;;18.92;10.32;;;;;;;4.24;66.05;96065.97;5032233;28;20099;-68
2022/12/18 08:46:43;;;;;;;14.80;8.90;;;;;;;4.19;65.49;96055.00;5036882;28;20103;-68
2022/12/18 08:49:09;;;;;;;18.20;9.65;;;;;;;4.25;65.26;96044.50;5031837;28;20474;-69
2022/12/18 08:51:34;;;;;;;16.85;10.38;;;;;;;4.40;64.93;96049.06;5015536;28;20030;-69
2022/12/18 08:54:00;;;;;;;16.27;9.85;;;;;;;4.43;65.75;96050.63;5031898;28;20033;-70
2022/12/18 08:56:25;;;;;;;16.95;11.52;;;;;;;4.48;65.77;96051.31;5015492;28;20034;-68
2022/12/18 08:58:52;;;;;;;17.73;10.43;;;;;;;4.39;65.04;96064.53;5031148;28;20033;-69
2022/12/18 09:01:17;;;;;;;17.83;9.88;;;;;;;4.33;65.68;96065.63;5042043;28;20037;-68
2022/12/18 09:03:43;;;;;;;17.98;10.68;;;;;;;4.16;65.75;96070.56;5043239;28;20115;-68
2022/12/18 09:06:08;;;;;;;16.63;10.20;;;;;;;4.21;66.15;96064.34;5051535;28;20071;-69
2022/12/18 09:08:34;;;;;;;18.30;11.55;;;;;;;4.31;65.98;96057.09;5050980;28;20479;-69
2022/12/18 09:10:59;;;;;;;17.35;11.95;;;;;;;4.30;65.26;96041.75;5033729;28;20411;-69
2022/12/18 09:13:25;;;;;;;17.20;10.85;;;;;;;4.52;65.38;96052.03;5036718;28;20033;-69
2022/12/18 09:15:51;;;;;;;19.85;11.65;;;;;;;4.39;65.49;96031.91;5037428;28;20040;-69
2022/12/18 09:18:17;;;;;;;16.67;10.48;;;;;;;4.45;65.16;96061.72;5045197;28;20468;-70
2022/12/18 09:20:43;;;;;;;15.30;10.20;;;;;;;4.39;64.76;96049.94;5024983;28;20049;-69
2022/12/18 09:23:09;;;;;;;17.13;10.90;;;;;;;4.27;64.52;96036.72;5027776;28;20451;-71
2022/12/18 09:25:35;;;;;;;18.88;11.70;;;;;;;4.51;64.98;96055.50;5029826;28;20053;-71
2022/12/18 09:28:02;;;;;;;19.15;12.25;;;;;;;4.44;65.03;96030.00;5049847;28;20021;-71
2022/12/18 09:30:27;;;;;;;20.85;12.15;;;;;;;4.76;64.30;96045.91;5034298;28;20041;-71
2022/12/18 09:32:53;;;;;;;19.98;12.20;;;;;;;4.50;64.06;96034.06;5025816;28;20036;-71
2022/12/18 09:35:18;;;;;;;21.60;12.57;;;;;;;4.78;64.21;96051.00;5038258;28;20033;-70
2022/12/18 09:37:43;;;;;;;18.27;11.15;;;;;;;4.82;64.15;96045.66;5030835;28;20030;-71
2022/12/18 09:40:20;;;;;;;21.35;13.30;;;;;;;4.84;63.84;96043.84;5032074;28;20471;-70
2022/12/18 09:42:47;;;;;;;25.58;14.75;;;;;;;4.81;64.03;96033.69;5015804;28;20045;-72
2022/12/18 09:45:14;;;;;;;21.67;13.40;;;;;;;4.92;63.73;96062.41;5040149;28;20156;-72
2022/12/18 09:47:39;;;;;;;19.08;13.20;;;;;;;4.81;64.53;96049.13;5000281;28;20411;-73
2022/12/18 09:50:22;;;;;;;21.80;13.00;;;;;;;4.90;63.50;96053.94;5016643;28;20045;-72
2022/12/18 09:52:49;;;;;;;30.58;17.20;;;;;;;4.99;63.38;96062.19;5016573;28;20025;-72
2022/12/18 09:55:17;;;;;;;27.88;16.45;;;;;;;5.15;62.91;96055.47;5034442;28;20045;-72
2022/12/18 09:57:47;;;;;;;24.85;15.30;;;;;;;5.11;62.90;96053.94;5030751;28;20049;-71
2022/12/18 10:00:18;;;;;;;23.42;13.75;;;;;;;5.05;62.14;96061.91;5034550;28;20026;-72
2022/12/18 10:02:44;;;;;;;16.60;10.93;;;;;;;4.92;62.28;96056.41;5049760;28;20035;-71
2022/12/18 10:05:14;;;;;;;23.15;14.00;;;;;;;4.85;63.28;96045.53;5028009;28;20040;-72
2022/12/18 10:07:52;;;;;;;19.23;12.60;;;;;;;4.97;63.32;96058.81;5030070;28;20029;-71
2022/12/18 10:10:23;;;;;;;20.30;12.55;;;;;;;5.01;63.48;96055.19;5045519;28;20032;-71
2022/12/18 10:12:55;;;;;;;;;;;;;;;5.06;63.82;96068.72;5041845;28;20025;-72
2022/12/18 10:15:24;;;;;;;;;;;;;;;5.12;63.86;96064.16;5021656;28;20090;-70
2022/12/18 10:17:51;;;;;;;23.58;11.57;;;;;;;5.17;63.69;96056.25;5039134;28;19940;-71
2022/12/18 10:20:38;;;;;;;26.52;12.88;;;;;;;5.13;64.00;96062.44;5034519;28;20028;-71
2022/12/18 10:23:31;;;;;;;30.00;17.80;;;;;;;5.07;63.90;96047.22;5020125;28;20025;-71
2022/12/18 10:26:07;;;;;;;29.05;13.63;;;;;;;5.32;61.92;96065.06;5032689;28;20049;-72
2022/12/18 10:28:35;;;;;;;28.85;15.70;;;;;;;5.19;61.83;96064.75;5023010;28;20064;-71
2022/12/18 10:31:00;;;;;;;21.17;13.60;;;;;;;4.93;62.14;96038.34;5024880;28;20039;-71
2022/12/18 10:33:29;;;;;;;20.65;13.07;;;;;;;5.11;61.72;96067.63;5044214;28;20054;-71
2022/12/18 10:35:54;;;;;;;28.83;14.75;;;;;;;5.11;60.76;96054.75;5012318;28;20468;-70
2022/12/18 10:38:28;;;;;;;33.10;18.92;;;;;;;5.23;61.07;96068.03;5025814;28;20040;-71
2022/12/18 10:40:56;;;;;;;23.00;13.15;;;;;;;5.29;60.08;96055.75;5029534;28;20083;-71
2022/12/18 10:43:32;;;;;;;22.88;12.80;;;;;;;5.22;59.66;96048.34;5040364;28;20033;-71
2022/12/18 10:46:19;;;;;;;20.60;12.48;;;;;;;5.23;59.99;96055.97;5011102;28;20582;-71
2022/12/18 10:48:48;;;;;;;19.52;11.88;;;;;;;5.24;59.49;96051.69;5039487;28;20037;-71
2022/12/18 10:51:29;;;;;;;22.60;13.77;;;;;;;5.30;59.74;96054.00;5043196;28;20037;-71
2022/12/18 10:54:04;;;;;;;22.73;11.60;;;;;;;5.33;58.56;96049.53;5042765;28;20044;-71
2022/12/18 10:56:31;;;;;;;25.55;14.60;;;;;;;5.24;59.05;96042.22;5043094;28;20071;-71
2022/12/18 10:58:58;;;;;;;26.90;14.95;;;;;;;5.32;59.73;96052.19;5027153;28;20029;-71
2022/12/18 11:01:24;;;;;;;23.05;13.10;;;;;;;5.30;60.20;96041.13;5044452;28;20082;-71
2022/12/18 11:03:49;;;;;;;24.15;14.27;;;;;;;5.25;61.14;96061.09;5043398;28;20096;-71
2022/12/18 11:06:24;;;;;;;24.00;14.30;;;;;;;5.23;61.08;96050.81;5041813;28;20526;-71
2022/12/18 11:09:06;;;;;;;21.60;12.98;;;;;;;5.18;61.41;96050.19;5044180;28;20068;-72
2022/12/18 11:11:32;;;;;;;20.48;12.05;;;;;;;5.28;61.43;96059.22;5044652;28;20045;-72
2022/12/18 11:14:04;;;;;;;18.05;10.90;;;;;;;4.78;60.60;96033.81;5028362;28;20075;-71
2022/12/18 11:16:36;;;;;;;24.58;13.18;;;;;;;4.99;60.80;96065.59;5044429;28;20415;-72
2022/12/18 11:19:15;;;;;;;22.55;13.23;;;;;;;4.93;60.40;96048.66;5040550;28;20041;-72
2022/12/18 11:21:41;;;;;;;33.38;16.67;;;;;;;4.79;60.16;96039.78;5028034;28;20415;-71
2022/12/18 11:24:14;;;;;;;23.25;14.13;;;;;;;4.81;59.51;96025.94;5029039;28;20044;-72
2022/12/18 11:26:43;;;;;;;21.30;13.23;;;;;;;4.92;59.48;96062.41;5026570;28;20414;-71
2022/12/18 11:29:10;;;;;;;20.80;11.23;;;;;;;4.61;59.66;96049.09;5041243;28;20112;-71
2022/12/18 11:31:35;;;;;;;21.95;12.15;;;;;;;4.82;58.85;96049.97;5010895;28;20678;-71
2022/12/18 11:34:11;;;;;;;19.58;10.75;;;;;;;4.83;58.77;96046.50;5012021;28;20114;-71
2022/12/18 11:36:44;;;;;;;17.83;10.65;;;;;;;4.86;58.34;96062.66;5048459;28;20089;-71
2022/12/18 11:39:44;;;;;;;20.15;11.52;;;;;;;4.82;58.55;96058.53;5046454;28;20056;-71
2022/12/18 11:42:16;;;;;;;19.05;11.13;;;;;;;4.86;58.56;96054.94;5044138;28;20102;-72
2022/12/18 11:44:43;;;;;;;18.10;11.13;;;;;;;4.96;58.70;96057.13;5016014;28;20422;-71
2022/12/18 11:47:30;;;;;;;22.42;11.65;;;;;;;4.97;57.76;96072.53;5047740;28;20076;-71